createdAt,value
2022-08-19T00:01:59.303Z,100539.78
2022-08-19T00:04:30.700Z,100543.81
2022-08-19T00:06:58.218Z,100543.97
2022-08-19T00:09:25.614Z,100545.66
2022-08-19T00:11:53.328Z,100572.75
2022-08-19T00:14:21.458Z,100568.28
2022-08-19T00:16:49.109Z,100564.53
2022-08-19T00:19:16.658Z,100565.03
2022-08-19T00:21:44.202Z,100565.56
2022-08-19T00:24:13.721Z,100540.34
2022-08-19T00:26:41.412Z,100563.16
2022-08-19T00:29:10.247Z,100565.69
2022-08-19T00:31:36.993Z,100551.03
2022-08-19T00:34:04.077Z,100563.41
2022-08-19T00:36:30.724Z,100540.91
2022-08-19T00:38:57.303Z,100560.78
2022-08-19T00:41:25.424Z,100541.53
2022-08-19T00:43:59.642Z,100554.25
2022-08-19T00:46:27.267Z,100552.53
2022-08-19T00:48:54.144Z,100544.16
2022-08-19T00:51:20.701Z,100553.88
2022-08-19T00:53:47.495Z,100553.09
2022-08-19T00:56:14.149Z,100558.78
2022-08-19T00:58:41.851Z,100553.28
2022-08-19T01:01:08.876Z,100555.66
2022-08-19T01:03:55.169Z,100556.09
2022-08-19T01:06:22.089Z,100511.66
2022-08-19T01:08:50.047Z,100526.03
2022-08-19T01:11:17.517Z,100553.59
2022-08-19T01:13:44.263Z,100560.22
2022-08-19T01:16:18.180Z,100539.50
2022-08-19T01:18:44.791Z,100556.16
2022-08-19T01:21:46.109Z,100552.50
2022-08-19T01:24:12.832Z,100556.66
2022-08-19T01:26:45.305Z,100559.13
2022-08-19T01:29:14.973Z,100559.94
2022-08-19T01:31:41.734Z,100548.22
2022-08-19T01:34:08.817Z,100555.41
2022-08-19T01:36:46.610Z,100554.50
2022-08-19T01:39:17.226Z,100547.97
2022-08-19T01:41:43.871Z,100548.22
2022-08-19T01:44:18.322Z,100540.44
2022-08-19T01:46:48.000Z,100533.97
2022-08-19T01:49:14.902Z,100511.66
2022-08-19T01:51:41.405Z,100543.63
2022-08-19T01:54:09.762Z,100533.34
2022-08-19T01:56:36.815Z,100542.88
2022-08-19T01:59:06.563Z,100538.97
2022-08-19T02:01:33.460Z,100519.94
2022-08-19T02:04:01.702Z,100524.31
2022-08-19T02:06:29.356Z,100501.00
2022-08-19T02:08:57.228Z,100523.72
2022-08-19T02:11:27.958Z,100523.16
2022-08-19T02:13:55.815Z,100522.47
2022-08-19T02:16:22.869Z,100501.38
2022-08-19T02:18:49.787Z,100509.97
2022-08-19T02:21:17.875Z,100500.31
2022-08-19T02:23:45.218Z,100533.59
2022-08-19T02:26:12.008Z,100535.81
2022-08-19T02:28:39.559Z,100505.84
2022-08-19T02:31:15.732Z,100542.25
2022-08-19T02:33:42.837Z,100537.09
2022-08-19T02:36:11.725Z,100537.69
2022-08-19T02:38:39.179Z,100515.63
2022-08-19T02:41:10.971Z,100522.53
2022-08-19T02:43:38.080Z,100523.28
2022-08-19T02:46:21.999Z,100519.03
2022-08-19T02:48:53.246Z,100526.59
2022-08-19T02:51:22.618Z,100515.56
2022-08-19T02:53:49.468Z,100520.09
2022-08-19T02:56:16.348Z,100523.59
2022-08-19T02:58:43.933Z,100528.50
2022-08-19T03:01:11.822Z,100533.50
2022-08-19T03:03:38.648Z,100534.16
2022-08-19T03:06:14.144Z,100533.84
2022-08-19T03:08:43.199Z,100525.66
2022-08-19T03:11:25.172Z,100517.88
2022-08-19T03:13:52.221Z,100525.47
2022-08-19T03:16:19.487Z,100524.25
2022-08-19T03:18:46.143Z,100525.59
2022-08-19T03:21:21.564Z,100530.53
2022-08-19T03:23:48.213Z,100529.03
2022-08-19T03:26:17.079Z,100522.91
2022-08-19T03:28:51.615Z,100502.16
2022-08-19T03:31:43.807Z,100522.03
2022-08-19T03:34:19.540Z,100536.56
2022-08-19T03:36:47.305Z,100531.19
2022-08-19T03:39:14.894Z,100537.97
2022-08-19T03:41:45.651Z,100534.53
2022-08-19T03:44:22.655Z,100530.41
2022-08-19T03:46:53.049Z,100529.72
2022-08-19T03:49:20.604Z,100545.56
2022-08-19T03:51:49.263Z,100534.19
2022-08-19T03:54:19.165Z,100522.94
2022-08-19T03:56:47.800Z,100546.88
2022-08-19T03:59:17.745Z,100552.38
2022-08-19T04:01:44.485Z,100553.56
2022-08-19T04:04:11.527Z,100555.19
2022-08-19T04:06:40.101Z,100558.47
2022-08-19T04:09:11.002Z,100545.69
2022-08-19T04:11:49.450Z,100549.50
2022-08-19T04:14:20.183Z,100559.25
2022-08-19T04:16:48.355Z,100552.53
2022-08-19T04:19:16.233Z,100559.47
2022-08-19T04:21:46.031Z,100561.44
2022-08-19T04:24:13.475Z,100556.22
2022-08-19T04:26:40.260Z,100554.63
2022-08-19T04:29:36.624Z,100559.91
2022-08-19T04:32:08.974Z,100548.19
2022-08-19T04:34:37.519Z,100560.25
2022-08-19T04:37:24.152Z,100544.19
2022-08-19T04:40:09.577Z,100563.63
2022-08-19T04:42:42.517Z,100567.16
2022-08-19T04:45:13.088Z,100571.06
2022-08-19T04:47:49.251Z,100568.09
2022-08-19T04:50:25.653Z,100566.63
2022-08-19T04:52:53.455Z,100566.00
2022-08-19T04:55:20.226Z,100569.53
2022-08-19T04:57:46.913Z,100577.31
2022-08-19T05:00:13.678Z,100572.53
2022-08-19T05:02:40.345Z,100585.78
2022-08-19T05:05:07.777Z,100585.09
2022-08-19T05:07:34.703Z,100578.78
2022-08-19T05:10:01.485Z,100579.97
2022-08-19T05:12:29.684Z,100571.31
2022-08-19T05:14:58.221Z,100576.31
2022-08-19T05:17:28.500Z,100573.38
2022-08-19T05:20:15.845Z,100575.00
2022-08-19T05:22:44.993Z,100570.50
2022-08-19T05:25:15.740Z,100573.09
2022-08-19T05:27:43.100Z,100567.97
2022-08-19T05:30:11.866Z,100584.31
2022-08-19T05:32:39.872Z,100585.72
2022-08-19T05:35:07.177Z,100590.69
2022-08-19T05:37:33.937Z,100560.09
2022-08-19T05:40:00.808Z,100580.81
2022-08-19T05:42:27.461Z,100592.53
2022-08-19T05:44:54.136Z,100591.66
2022-08-19T05:47:21.141Z,100568.41
2022-08-19T05:49:48.737Z,100577.94
2022-08-19T05:52:19.533Z,100574.53
2022-08-19T05:54:52.201Z,100591.19
2022-08-19T05:57:19.946Z,100591.31
2022-08-19T05:59:46.771Z,100596.81
2022-08-19T06:02:14.446Z,100582.44
2022-08-19T06:04:43.626Z,100564.44
2022-08-19T06:07:12.236Z,100556.78
2022-08-19T06:09:40.445Z,100585.16
2022-08-19T06:12:07.359Z,100556.44
2022-08-19T06:14:40.309Z,100587.00
2022-08-19T06:17:09.222Z,100577.38
2022-08-19T06:19:40.819Z,100572.50
2022-08-19T06:22:08.499Z,100568.03
2022-08-19T06:24:36.143Z,100548.72
2022-08-19T06:27:04.085Z,100580.63
2022-08-19T06:29:31.108Z,100582.97
2022-08-19T06:31:59.634Z,100575.75
2022-08-19T06:34:29.117Z,100586.41
2022-08-19T06:36:57.085Z,100589.50
2022-08-19T06:39:29.047Z,100577.22
2022-08-19T06:41:59.196Z,100584.84
2022-08-19T06:44:28.776Z,100576.00
2022-08-19T06:46:57.279Z,100573.50
2022-08-19T06:49:24.163Z,100523.47
2022-08-19T06:51:51.782Z,100581.19
2022-08-19T06:54:20.135Z,100584.78
2022-08-19T06:56:47.867Z,100582.75
2022-08-19T06:59:17.398Z,100585.44
2022-08-19T07:01:49.555Z,100584.97
2022-08-19T07:04:19.163Z,100546.13
2022-08-19T07:06:46.346Z,100570.94
2022-08-19T07:09:21.742Z,100566.63
2022-08-19T07:11:50.242Z,100545.81
2022-08-19T07:14:19.725Z,100542.91
2022-08-19T07:16:49.069Z,100535.06
2022-08-19T07:19:18.833Z,100586.53
2022-08-19T07:21:47.840Z,100545.16
2022-08-19T07:24:14.541Z,100579.53
2022-08-19T07:26:43.782Z,100594.97
2022-08-19T07:29:10.941Z,100607.00
2022-08-19T07:31:38.206Z,100589.25
2022-08-19T07:34:11.408Z,100599.91
2022-08-19T07:36:41.605Z,100587.56
2022-08-19T07:39:26.229Z,100596.66
2022-08-19T07:41:53.019Z,100573.56
2022-08-19T07:44:21.217Z,100606.50
2022-08-19T07:46:53.175Z,100608.56
2022-08-19T07:49:20.741Z,100570.38
2022-08-19T07:51:56.702Z,100614.28
2022-08-19T07:54:25.233Z,100612.50
2022-08-19T07:56:52.459Z,100616.56
2022-08-19T07:59:20.431Z,100616.09
2022-08-19T08:01:47.264Z,100628.97
2022-08-19T08:04:33.482Z,100618.78
2022-08-19T08:07:18.752Z,100631.63
2022-08-19T08:09:49.538Z,100633.94
2022-08-19T08:12:33.799Z,100626.09
2022-08-19T08:15:08.785Z,100629.13
2022-08-19T08:17:51.653Z,100630.91
2022-08-19T08:20:19.731Z,100640.06
2022-08-19T08:23:06.343Z,100629.13
2022-08-19T08:25:34.262Z,100624.59
2022-08-19T08:28:01.228Z,100631.75
2022-08-19T08:30:31.073Z,100640.09
2022-08-19T08:32:59.922Z,100636.38
2022-08-19T08:35:26.873Z,100627.03
2022-08-19T08:37:55.322Z,100634.63
2022-08-19T08:40:30.170Z,100627.44
2022-08-19T08:43:19.093Z,100639.56
2022-08-19T08:45:53.909Z,100638.19
2022-08-19T08:48:26.092Z,100646.16
2022-08-19T08:50:54.300Z,100649.75
2022-08-19T08:53:27.456Z,100612.22
2022-08-19T08:55:56.931Z,100629.69
2022-08-19T08:58:55.705Z,100632.50
2022-08-19T09:01:22.642Z,100636.28
2022-08-19T09:03:49.319Z,100599.16
2022-08-19T09:06:38.218Z,100638.25
2022-08-19T09:09:32.043Z,100637.34
2022-08-19T09:12:28.215Z,100639.75
2022-08-19T09:15:01.440Z,100638.50
2022-08-19T09:17:36.264Z,100642.22
2022-08-19T09:20:11.928Z,100633.66
2022-08-19T09:22:41.960Z,100636.31
2022-08-19T09:25:11.553Z,100639.63
2022-08-19T09:27:43.237Z,100639.16
2022-08-19T09:30:17.348Z,100630.81
2022-08-19T09:32:45.037Z,100612.91
2022-08-19T09:35:13.572Z,100620.13
2022-08-19T09:37:40.617Z,100585.19
2022-08-19T09:40:09.287Z,100606.28
2022-08-19T09:42:38.717Z,100591.25
2022-08-19T09:45:19.200Z,100605.91
2022-08-19T09:47:45.792Z,100602.75
2022-08-19T09:50:16.583Z,100578.25
2022-08-19T09:52:44.397Z,100586.44
2022-08-19T09:55:22.086Z,100588.09
2022-08-19T09:57:50.932Z,100600.41
2022-08-19T10:00:17.623Z,100609.75
2022-08-19T10:02:44.747Z,100604.88
2022-08-19T10:05:30.570Z,100593.00
2022-08-19T10:07:57.751Z,100603.44
2022-08-19T10:10:25.087Z,100597.78
2022-08-19T10:12:51.677Z,100601.06
2022-08-19T10:15:29.229Z,100601.41
2022-08-19T10:17:56.568Z,100598.97
2022-08-19T10:20:25.970Z,100592.53
2022-08-19T10:22:53.464Z,100574.44
2022-08-19T10:25:20.138Z,100591.09
2022-08-19T10:27:48.399Z,100572.59
2022-08-19T10:30:18.897Z,100594.50
2022-08-19T10:32:47.357Z,100589.88
2022-08-19T10:35:16.189Z,100565.22
2022-08-19T10:38:00.146Z,100585.81
2022-08-19T10:40:29.075Z,100581.81
2022-08-19T10:42:57.030Z,100570.38
2022-08-19T10:45:26.924Z,100569.31
2022-08-19T10:47:55.003Z,100569.91
2022-08-19T10:50:40.998Z,100578.19
2022-08-19T10:53:09.774Z,100571.03
2022-08-19T10:55:55.302Z,100574.25
2022-08-19T10:58:24.508Z,100566.47
2022-08-19T11:00:56.364Z,100566.09
2022-08-19T11:03:23.964Z,100538.44
2022-08-19T11:06:20.497Z,100552.31
2022-08-19T11:08:47.216Z,100557.84
2022-08-19T11:11:14.012Z,100544.22
2022-08-19T11:13:41.919Z,100559.75
2022-08-19T11:16:11.154Z,100560.63
2022-08-19T11:18:39.419Z,100567.88
2022-08-19T11:21:27.945Z,100565.41
2022-08-19T11:23:57.423Z,100569.41
2022-08-19T11:26:25.485Z,100535.78
2022-08-19T11:28:55.141Z,100544.94
2022-08-19T11:31:24.092Z,100548.28
2022-08-19T11:33:58.458Z,100555.03
2022-08-19T11:36:25.056Z,100544.19
2022-08-19T11:38:52.111Z,100547.56
2022-08-19T11:41:20.283Z,100545.34
2022-08-19T11:43:47.082Z,100520.09
2022-08-19T11:46:15.533Z,100536.22
2022-08-19T11:48:42.423Z,100539.34
2022-08-19T11:51:12.048Z,100534.06
2022-08-19T11:53:39.430Z,100544.59
2022-08-19T11:56:07.813Z,100535.44
2022-08-19T11:58:35.220Z,100536.72
2022-08-19T12:01:01.908Z,100531.97
2022-08-19T12:03:28.980Z,100546.81
2022-08-19T12:05:55.732Z,100542.06
2022-08-19T12:08:22.578Z,100540.84
2022-08-19T12:10:49.167Z,100546.88
2022-08-19T12:13:19.291Z,100551.97
2022-08-19T12:15:47.946Z,100542.72
2022-08-19T12:18:15.071Z,100541.91
2022-08-19T12:20:43.829Z,100537.28
2022-08-19T12:23:11.151Z,100529.56
2022-08-19T12:25:39.271Z,100532.81
2022-08-19T12:28:05.803Z,100536.41
2022-08-19T12:30:32.313Z,100534.44
2022-08-19T12:33:00.068Z,100452.88
2022-08-19T12:35:26.746Z,100537.88
2022-08-19T12:37:57.037Z,100536.28
2022-08-19T12:40:24.272Z,100504.34
2022-08-19T12:42:54.069Z,100525.91
2022-08-19T12:45:21.068Z,100494.72
2022-08-19T12:47:47.792Z,100516.88
2022-08-19T12:54:35.821Z,100516.16
2022-08-19T12:57:06.507Z,100520.97
2022-08-19T12:59:32.991Z,100517.84
2022-08-19T13:02:02.345Z,100515.50
2022-08-19T13:04:28.884Z,100513.00
2022-08-19T13:06:55.450Z,100512.50
2022-08-19T13:09:21.971Z,100480.38
2022-08-19T13:11:48.536Z,100510.19
2022-08-19T13:14:15.117Z,100515.59
2022-08-19T13:16:42.231Z,100515.13
2022-08-19T13:19:09.002Z,100519.53
2022-08-19T13:21:35.625Z,100499.53
2022-08-19T13:24:03.389Z,100502.94
2022-08-19T13:26:30.011Z,100505.25
2022-08-19T13:29:15.445Z,100510.81
2022-08-19T13:32:01.089Z,100490.56
2022-08-19T13:34:37.818Z,100505.94
2022-08-19T13:37:05.288Z,100503.88
2022-08-19T13:39:36.273Z,100495.63
2022-08-19T13:42:04.091Z,100487.97
2022-08-19T13:44:30.846Z,100485.53
2022-08-19T13:47:07.638Z,100495.03
2022-08-19T13:49:37.122Z,100496.44
2022-08-19T13:52:05.134Z,100483.78
2022-08-19T13:54:31.710Z,100483.09
2022-08-19T13:56:58.296Z,100475.00
2022-08-19T13:59:25.545Z,100472.44
2022-08-19T14:01:52.148Z,100459.16
2022-08-19T14:04:18.825Z,100473.41
2022-08-19T14:06:45.323Z,100478.16
2022-08-19T14:09:11.894Z,100480.84
2022-08-19T14:11:39.224Z,100483.47
2022-08-19T14:14:05.865Z,100467.69
2022-08-19T14:16:32.705Z,100458.41
2022-08-19T14:18:59.214Z,100494.09
2022-08-19T14:21:26.393Z,100491.00
2022-08-19T14:23:53.959Z,100503.03
2022-08-19T14:26:22.026Z,100500.47
2022-08-19T14:28:49.172Z,100494.41
2022-08-19T14:31:19.831Z,100482.78
2022-08-19T14:33:49.767Z,100494.94
2022-08-19T14:36:16.474Z,100500.75
2022-08-19T14:38:43.389Z,100498.00
2022-08-19T14:41:18.320Z,100497.22
2022-08-19T14:43:47.353Z,100490.88
2022-08-19T14:46:21.369Z,100498.38
2022-08-19T14:48:48.502Z,100506.84
2022-08-19T14:51:19.453Z,100500.34
2022-08-19T14:53:46.405Z,100505.44
2022-08-19T14:56:15.012Z,100502.84
2022-08-19T14:58:42.835Z,100511.56
2022-08-19T15:01:10.276Z,100464.53
2022-08-19T15:03:36.863Z,100505.59
2022-08-19T15:06:05.696Z,100504.59
2022-08-19T15:08:34.839Z,100508.34
2022-08-19T15:11:01.494Z,100505.19
2022-08-19T15:13:29.927Z,100501.13
2022-08-19T15:15:58.005Z,100507.81
2022-08-19T15:18:24.835Z,100504.16
2022-08-19T15:20:51.978Z,100509.19
2022-08-19T15:23:20.528Z,100516.03
2022-08-19T15:25:47.206Z,100514.69
2022-08-19T15:28:14.304Z,100513.78
2022-08-19T15:30:41.859Z,100499.63
2022-08-19T15:33:08.538Z,100515.94
2022-08-19T15:35:35.109Z,100517.56
2022-08-19T15:38:02.080Z,100507.59
2022-08-19T15:40:28.729Z,100474.81
2022-08-19T15:42:56.435Z,100524.72
2022-08-19T15:45:23.223Z,100516.19
2022-08-19T15:47:49.732Z,100515.22
2022-08-19T15:50:21.089Z,100531.34
2022-08-19T15:52:54.714Z,100534.13
2022-08-19T15:55:32.828Z,100533.94
2022-08-19T15:58:28.605Z,100522.25
2022-08-19T16:01:20.299Z,100523.88
2022-08-19T16:04:13.725Z,100521.44
2022-08-19T16:06:53.609Z,100522.00
2022-08-19T16:09:26.994Z,100530.97
2022-08-19T16:12:02.549Z,100536.00
2022-08-19T16:14:31.427Z,100500.00
2022-08-19T16:16:58.035Z,100515.53
2022-08-19T16:19:25.391Z,100529.19
2022-08-19T16:21:54.598Z,100541.59
2022-08-19T16:24:23.914Z,100533.09
2022-08-19T16:26:50.538Z,100533.66
2022-08-19T16:29:33.295Z,100537.25
2022-08-19T16:32:02.891Z,100537.00
2022-08-19T16:34:29.963Z,100547.06
2022-08-19T16:36:56.456Z,100523.94
2022-08-19T16:39:23.665Z,100535.06
2022-08-19T16:41:50.916Z,100517.75
2022-08-19T16:44:19.342Z,100541.78
2022-08-19T16:46:46.794Z,100550.75
2022-08-19T16:49:53.298Z,100547.00
2022-08-19T16:52:12.211Z,100542.56
2022-08-19T16:54:41.931Z,100536.09
2022-08-19T16:57:11.969Z,100547.72
2022-08-19T16:59:44.172Z,100542.22
2022-08-19T17:02:15.353Z,100542.50
2022-08-19T17:04:41.943Z,100539.19
2022-08-19T17:07:09.964Z,100540.72
2022-08-19T17:09:36.956Z,100541.22
2022-08-19T17:12:04.898Z,100537.41
2022-08-19T17:14:31.377Z,100521.44
2022-08-19T17:16:57.913Z,100537.63
2022-08-19T17:19:24.406Z,100533.31
2022-08-19T17:21:51.190Z,100535.72
2022-08-19T17:24:17.741Z,100500.03
2022-08-19T17:26:44.366Z,100528.88
2022-08-19T17:29:10.964Z,100528.63
2022-08-19T17:31:37.630Z,100532.22
2022-08-19T17:34:04.514Z,100489.75
2022-08-19T17:36:34.010Z,100529.75
2022-08-19T17:39:01.826Z,100533.53
2022-08-19T17:41:30.383Z,100525.91
2022-08-19T17:43:57.724Z,100526.88
2022-08-19T17:46:24.220Z,100508.84
2022-08-19T17:48:57.407Z,100524.03
2022-08-19T17:51:23.885Z,100526.75
2022-08-19T17:53:52.945Z,100513.19
2022-08-19T17:56:20.042Z,100525.41
2022-08-19T17:58:54.358Z,100495.94
2022-08-19T18:01:30.753Z,100528.59
2022-08-19T18:04:15.037Z,100509.41
2022-08-19T18:06:41.705Z,100523.13
2022-08-19T18:09:13.373Z,100529.31
2022-08-19T18:11:40.986Z,100526.19
2022-08-19T18:14:07.522Z,100522.94
2022-08-19T18:16:34.078Z,100528.59
2022-08-19T18:19:01.151Z,100498.28
2022-08-19T18:21:31.805Z,100527.34
2022-08-19T18:24:00.477Z,100533.31
2022-08-19T18:26:30.276Z,100504.34
2022-08-19T18:28:57.170Z,100535.50
2022-08-19T18:31:23.845Z,100537.25
2022-08-19T18:33:52.603Z,100536.22
2022-08-19T18:36:37.397Z,100534.16
2022-08-19T18:39:25.058Z,100542.06
2022-08-19T18:42:14.510Z,100550.38
2022-08-19T18:45:00.012Z,100538.94
2022-08-19T18:47:45.540Z,100555.59
2022-08-19T18:50:13.033Z,100563.25
2022-08-19T18:52:40.968Z,100560.44
2022-08-19T18:55:08.066Z,100570.53
2022-08-19T18:57:35.054Z,100563.03
2022-08-19T19:00:03.082Z,100550.66
2022-08-19T19:02:29.591Z,100582.41
2022-08-19T19:04:56.106Z,100558.75
2022-08-19T19:07:23.351Z,100586.78
2022-08-19T19:09:52.730Z,100588.25
2022-08-19T19:12:19.344Z,100590.88
2022-08-19T19:14:49.489Z,100594.00
2022-08-19T19:17:16.878Z,100598.69
2022-08-19T19:19:44.385Z,100606.31
2022-08-19T19:22:13.976Z,100597.31
2022-08-19T19:24:44.191Z,100599.06
2022-08-19T19:27:12.890Z,100603.25
2022-08-19T19:29:40.133Z,100596.16
2022-08-19T19:32:09.642Z,100616.97
2022-08-19T19:34:40.152Z,100607.63
2022-08-19T19:37:06.794Z,100619.63
2022-08-19T19:39:46.620Z,100624.22
2022-08-19T19:42:20.694Z,100619.63
2022-08-19T19:44:51.899Z,100625.59
2022-08-19T19:47:19.567Z,100596.50
2022-08-19T19:50:12.681Z,100633.53
2022-08-19T19:52:34.206Z,100620.19
2022-08-19T19:55:02.873Z,100633.13
2022-08-19T19:57:30.356Z,100629.47
2022-08-19T19:59:57.049Z,100637.94
2022-08-19T20:02:25.263Z,100628.22
2022-08-19T20:04:52.546Z,100619.94
2022-08-19T20:07:39.358Z,100649.50
2022-08-19T20:10:06.198Z,100653.06
2022-08-19T20:12:32.740Z,100653.22
2022-08-19T20:14:59.347Z,100659.16
2022-08-19T20:17:25.916Z,100659.50
2022-08-19T20:19:53.467Z,100660.91
2022-08-19T20:22:20.069Z,100660.16
2022-08-19T20:24:48.359Z,100658.94
2022-08-19T20:27:14.862Z,100677.41
2022-08-19T20:29:44.476Z,100664.22
2022-08-19T20:32:12.446Z,100642.06
2022-08-19T20:34:40.219Z,100677.13
2022-08-19T20:37:09.292Z,100670.03
2022-08-19T20:39:36.503Z,100686.94
2022-08-19T20:42:03.274Z,100689.44
2022-08-19T20:44:29.857Z,100677.31
2022-08-19T20:47:00.501Z,100675.78
2022-08-19T20:49:29.843Z,100693.88
2022-08-19T20:51:56.655Z,100681.88
2022-08-19T20:54:24.132Z,100668.31
2022-08-19T20:56:51.024Z,100696.38
2022-08-19T20:59:18.231Z,100694.88
2022-08-19T21:01:44.831Z,100697.03
2022-08-19T21:04:11.412Z,100697.84
2022-08-19T21:06:38.641Z,100692.16
2022-08-19T21:09:08.856Z,100702.50
2022-08-19T21:11:36.084Z,100671.09
2022-08-19T21:14:02.876Z,100667.69
2022-08-19T21:16:32.500Z,100694.16
2022-08-19T21:18:59.233Z,100694.97
2022-08-19T21:21:25.825Z,100695.00
2022-08-19T21:23:52.915Z,100699.25
2022-08-19T21:26:19.669Z,100700.50
2022-08-19T21:28:46.260Z,100701.88
2022-08-19T21:31:15.024Z,100686.69
2022-08-19T21:33:41.631Z,100708.06
2022-08-19T21:36:08.617Z,100699.53
2022-08-19T21:38:35.350Z,100697.66
2022-08-19T21:41:05.843Z,100694.22
2022-08-19T21:43:34.005Z,100702.22
2022-08-19T21:46:00.560Z,100700.06
2022-08-19T21:48:27.087Z,100696.25
2022-08-19T21:50:53.997Z,100681.59
2022-08-19T21:53:22.953Z,100700.06
2022-08-19T21:55:53.366Z,100694.19
2022-08-19T21:58:28.125Z,100694.34
2022-08-19T22:00:56.829Z,100687.66
2022-08-19T22:03:26.743Z,100704.81
2022-08-19T22:05:53.299Z,100664.25
2022-08-19T22:08:19.871Z,100710.56
2022-08-19T22:10:46.774Z,100671.41
2022-08-19T22:13:14.528Z,100705.63
2022-08-19T22:15:42.416Z,100706.00
2022-08-19T22:18:10.305Z,100696.78
2022-08-19T22:20:37.120Z,100708.66
2022-08-19T22:23:06.556Z,100670.66
2022-08-19T22:25:36.281Z,100693.16
2022-08-19T22:28:05.231Z,100701.16
2022-08-19T22:30:34.046Z,100703.91
2022-08-19T22:33:04.096Z,100702.38
2022-08-19T22:35:32.806Z,100701.13
2022-08-19T22:38:00.031Z,100695.59
2022-08-19T22:40:28.962Z,100699.25
2022-08-19T22:43:05.301Z,100683.81
2022-08-19T22:45:33.400Z,100707.00
2022-08-19T22:48:00.168Z,100706.38
2022-08-19T22:50:26.775Z,100707.59
2022-08-19T22:53:02.651Z,100708.13
2022-08-19T22:55:30.320Z,100693.06
2022-08-19T22:57:57.689Z,100705.09
2022-08-19T23:00:27.728Z,100678.69
2022-08-19T23:02:55.776Z,100705.84
2022-08-19T23:05:25.496Z,100709.94
2022-08-19T23:07:54.173Z,100701.78
2022-08-19T23:10:26.863Z,100660.16
2022-08-19T23:12:57.798Z,100707.69
2022-08-19T23:15:27.324Z,100711.06
2022-08-19T23:17:56.079Z,100706.94
2022-08-19T23:20:27.230Z,100665.34
2022-08-19T23:22:56.270Z,100706.88
2022-08-19T23:25:27.206Z,100705.75
2022-08-19T23:28:12.833Z,100697.22
2022-08-19T23:30:43.679Z,100705.47
2022-08-19T23:33:24.185Z,100694.44
2022-08-19T23:35:58.899Z,100689.81
2022-08-19T23:38:26.954Z,100682.91
2022-08-19T23:40:55.170Z,100690.06
2022-08-19T23:43:24.429Z,100682.06
2022-08-19T23:45:52.032Z,100676.88
2022-08-19T23:48:18.659Z,100676.28
2022-08-19T23:50:45.975Z,100681.97
2022-08-19T23:53:13.764Z,100682.13
2022-08-19T23:55:44.020Z,100674.00
2022-08-19T23:58:13.699Z,100654.53
